createdAt,value
2018-10-12T00:03:09.406Z,101003.05
2018-10-12T00:07:52.528Z,101007.69
2018-10-12T00:12:36.593Z,100999.81
2018-10-12T00:17:19.465Z,101008.49
2018-10-12T00:22:03.574Z,101005.70
2018-10-12T00:26:46.463Z,101004.70
2018-10-12T00:31:30.592Z,100993.70
2018-10-12T00:36:13.449Z,101002.78
2018-10-12T00:40:59.644Z,101005.57
2018-10-12T00:45:42.555Z,101005.70
2018-10-12T00:50:25.413Z,101002.18
2018-10-12T00:55:08.316Z,101008.81
2018-10-12T00:59:51.246Z,101010.14
2018-10-12T01:04:34.416Z,101009.75
2018-10-12T01:09:17.248Z,100998.73
2018-10-12T01:14:00.403Z,101001.80
2018-10-12T01:18:43.334Z,100985.61
2018-10-12T01:23:26.535Z,100994.67
2018-10-12T01:28:09.516Z,100991.05
2018-10-12T01:32:58.972Z,100991.79
2018-10-12T01:37:42.844Z,100984.53
2018-10-12T01:42:26.873Z,100990.56
2018-10-12T01:47:09.879Z,100990.91
2018-10-12T01:51:56.555Z,101002.84
2018-10-12T01:56:39.393Z,101004.15
2018-10-12T02:01:23.304Z,101012.75
2018-10-12T02:06:06.258Z,101023.30
2018-10-12T02:10:50.501Z,101029.47
2018-10-12T02:15:36.776Z,101028.31
2018-10-12T02:20:22.568Z,101040.97
2018-10-12T02:25:07.409Z,101036.84
2018-10-12T02:29:50.330Z,101050.73
2018-10-12T02:34:33.510Z,101044.70
2018-10-12T02:39:16.412Z,101046.47
2018-10-12T02:43:59.550Z,101050.51
2018-10-12T02:48:43.736Z,101054.04
2018-10-12T02:53:26.815Z,101065.73
2018-10-12T02:58:09.760Z,101054.91
2018-10-12T03:02:52.787Z,101057.75
2018-10-12T03:07:35.672Z,101066.99
2018-10-12T03:12:19.582Z,101074.67
2018-10-12T03:17:02.477Z,101072.06
2018-10-12T03:21:45.611Z,101068.77
2018-10-12T03:26:28.518Z,101070.97
2018-10-12T03:31:15.672Z,101079.81
2018-10-12T03:35:58.900Z,101080.87
2018-10-12T03:40:43.739Z,101084.38
2018-10-12T03:45:26.597Z,101077.44
2018-10-12T03:50:10.644Z,101078.77
2018-10-12T03:54:53.536Z,101078.47
2018-10-12T03:59:36.401Z,101078.51
2018-10-12T04:04:20.498Z,101076.95
2018-10-12T04:09:03.710Z,101078.73
2018-10-12T04:13:46.785Z,101075.13
2018-10-12T04:18:29.653Z,101080.29
2018-10-12T04:23:12.518Z,101080.86
2018-10-12T04:27:55.373Z,101077.28
2018-10-12T04:32:38.318Z,101074.06
2018-10-12T04:37:21.181Z,101085.45
2018-10-12T04:42:05.111Z,101085.28
2018-10-12T04:46:48.079Z,101093.64
2018-10-12T04:51:36.288Z,101094.42
2018-10-12T04:56:20.321Z,101097.61
2018-10-12T05:01:04.509Z,101110.30
2018-10-12T05:05:55.044Z,101110.48
2018-10-12T05:10:39.178Z,101122.69
2018-10-12T05:15:24.248Z,101129.30
2018-10-12T05:20:08.097Z,101124.45
2018-10-12T05:24:51.104Z,101133.96
2018-10-12T05:29:34.073Z,101131.31
2018-10-12T05:34:23.708Z,101134.78
2018-10-12T05:39:10.215Z,101136.04
2018-10-12T05:43:53.427Z,101140.80
2018-10-12T05:48:47.453Z,101138.41
2018-10-12T05:53:30.966Z,101145.05
2018-10-12T05:58:13.952Z,101146.38
2018-10-12T06:02:56.958Z,101155.39
2018-10-12T06:07:39.857Z,101159.48
2018-10-12T06:12:22.856Z,101168.17
2018-10-12T06:17:05.835Z,101167.18
2018-10-12T06:21:49.899Z,101164.77
2018-10-12T06:26:32.753Z,101159.63
2018-10-12T06:31:16.708Z,101164.65
2018-10-12T06:35:59.583Z,101162.74
2018-10-12T06:40:43.574Z,101158.52
2018-10-12T06:45:26.421Z,101166.68
2018-10-12T06:50:13.120Z,101163.52
2018-10-12T06:54:55.976Z,101177.80
2018-10-12T06:59:39.910Z,101181.30
2018-10-12T07:04:22.884Z,101186.16
2018-10-12T07:09:08.905Z,101188.39
2018-10-12T07:13:51.997Z,101196.00
2018-10-12T07:18:34.834Z,101184.78
2018-10-12T07:23:17.891Z,101187.30
2018-10-12T07:28:00.754Z,101190.12
2018-10-12T07:32:44.672Z,101190.30
2018-10-12T07:37:27.553Z,101190.88
2018-10-12T07:42:13.812Z,101183.21
2018-10-12T07:46:56.713Z,101182.75
2018-10-12T07:51:41.600Z,101189.80
2018-10-12T07:56:24.474Z,101184.11
2018-10-12T08:01:09.317Z,101195.75
2018-10-12T08:05:52.200Z,101200.59
2018-10-12T08:10:35.187Z,101194.78
2018-10-12T08:15:18.460Z,101197.22
2018-10-12T08:20:03.210Z,101201.96
2018-10-12T08:24:46.069Z,101197.09
2018-10-12T08:29:30.045Z,101208.42
2018-10-12T08:34:13.384Z,101208.50
2018-10-12T08:38:56.238Z,101213.13
2018-10-12T08:43:39.207Z,101221.46
2018-10-12T08:48:22.110Z,101230.00
2018-10-12T08:53:05.233Z,101224.33
2018-10-12T08:57:48.345Z,101228.03
2018-10-12T09:02:35.101Z,101231.97
2018-10-12T09:07:18.349Z,101236.97
2018-10-12T09:12:01.350Z,101228.14
2018-10-12T09:16:44.213Z,101234.68
2018-10-12T09:21:29.350Z,101227.64
2018-10-12T09:26:12.167Z,101233.30
2018-10-12T09:30:56.240Z,101225.92
2018-10-12T09:35:39.085Z,101230.22
2018-10-12T09:40:23.002Z,101231.86
2018-10-12T09:45:05.845Z,101229.33
2018-10-12T09:49:48.742Z,101241.66
2018-10-12T09:54:31.607Z,101234.78
2018-10-12T09:59:17.891Z,101228.97
2018-10-12T10:04:06.269Z,101231.67
2018-10-12T10:08:50.078Z,101227.42
2018-10-12T10:13:33.293Z,101212.27
2018-10-12T10:18:16.160Z,101223.31
2018-10-12T10:23:00.214Z,101211.92
2018-10-12T10:27:43.143Z,101215.48
2018-10-12T10:32:26.967Z,101221.48
2018-10-12T10:37:09.822Z,101216.80
2018-10-12T10:41:52.769Z,101225.80
2018-10-12T10:46:35.620Z,101221.73
2018-10-12T10:51:22.144Z,101218.32
2018-10-12T10:56:05.047Z,101213.08
2018-10-12T11:00:48.986Z,101209.45
2018-10-12T11:05:31.840Z,101209.71
2018-10-12T11:10:18.278Z,101209.03
2018-10-12T11:15:01.572Z,101205.34
2018-10-12T11:19:45.585Z,101206.58
2018-10-12T11:24:28.512Z,101214.00
2018-10-12T11:29:13.393Z,101203.42
2018-10-12T11:33:56.214Z,101204.36
2018-10-12T11:38:39.139Z,101211.71
2018-10-12T11:43:31.180Z,101214.33
2018-10-12T11:48:14.064Z,101202.58
2018-10-12T11:52:56.996Z,101220.66
2018-10-12T11:57:39.890Z,101219.78
2018-10-12T12:02:22.872Z,101215.00
2018-10-12T12:07:06.477Z,101214.41
2018-10-12T12:11:49.549Z,101226.72
2018-10-12T12:16:32.407Z,101227.87
2018-10-12T12:21:18.784Z,101216.19
2018-10-12T12:26:01.677Z,101211.58
2018-10-12T12:30:45.743Z,101205.73
2018-10-12T12:35:29.264Z,101213.97
2018-10-12T12:40:13.052Z,101204.41
2018-10-12T12:44:56.017Z,101200.05
2018-10-12T12:49:43.378Z,101194.16
2018-10-12T12:54:26.695Z,101189.37
2018-10-12T12:59:09.663Z,101182.16
2018-10-12T13:03:52.488Z,101180.49
2018-10-12T13:08:35.323Z,101176.44
2018-10-12T13:13:18.989Z,101184.91
2018-10-12T13:18:01.868Z,101182.51
2018-10-12T13:22:46.855Z,101181.64
2018-10-12T13:27:29.700Z,101176.67
2018-10-12T13:32:14.797Z,101182.10
2018-10-12T13:36:57.778Z,101180.13
2018-10-12T13:41:40.712Z,101174.59
2018-10-12T13:46:23.636Z,101168.67
2018-10-12T13:51:07.882Z,101161.19
2018-10-12T13:55:50.802Z,101158.02
2018-10-12T14:00:35.915Z,101155.20
2018-10-12T14:05:19.826Z,101154.20
2018-10-12T14:10:06.020Z,101154.65
2018-10-12T14:14:48.901Z,101156.22
2018-10-12T14:19:33.033Z,101154.89
2018-10-12T14:24:15.834Z,101159.30
2018-10-12T14:28:59.770Z,101166.80
2018-10-12T14:33:42.643Z,101161.31
2018-10-12T14:38:28.660Z,101157.81
2018-10-12T14:43:11.591Z,101165.59
2018-10-12T14:47:54.429Z,101161.48
2018-10-12T14:52:38.247Z,101174.58
2018-10-12T14:57:21.126Z,101179.64
2018-10-12T15:02:05.882Z,101189.34
2018-10-12T15:06:49.483Z,101188.82
2018-10-12T15:11:34.560Z,101194.09
2018-10-12T15:16:17.416Z,101197.77
2018-10-12T15:21:03.844Z,101198.56
2018-10-12T15:25:46.771Z,101188.40
2018-10-12T15:30:31.997Z,101188.00
2018-10-12T15:35:14.861Z,101192.48
2018-10-12T15:40:00.378Z,101201.71
2018-10-12T15:44:43.291Z,101203.75
2018-10-12T15:49:26.878Z,101209.63
2018-10-12T15:54:09.819Z,101215.41
2018-10-12T15:58:56.746Z,101222.07
2018-10-12T16:03:40.699Z,101230.14
2018-10-12T16:08:24.557Z,101236.96
2018-10-12T16:13:08.279Z,101239.84
2018-10-12T16:17:51.160Z,101241.04
2018-10-12T16:22:35.244Z,101239.62
2018-10-12T16:27:18.099Z,101243.98
2018-10-12T16:32:03.188Z,101255.42
2018-10-12T16:36:46.124Z,101257.78
2018-10-12T16:41:29.217Z,101261.20
2018-10-12T16:46:12.122Z,101261.62
2018-10-12T16:50:56.271Z,101255.42
2018-10-12T16:55:39.842Z,101263.30
2018-10-12T17:09:23.735Z,101275.21
2018-10-12T17:14:14.861Z,101271.66
2018-10-12T17:23:53.515Z,101273.58
2018-10-12T17:28:36.518Z,101279.55
2018-10-12T17:33:19.413Z,101278.18
2018-10-12T17:38:04.678Z,101278.25
2018-10-12T17:42:47.662Z,101276.93
2018-10-12T17:47:30.555Z,101276.47
2018-10-12T17:52:14.760Z,101278.64
2018-10-12T17:56:57.740Z,101282.17
2018-10-12T18:01:40.764Z,101284.61
2018-10-12T18:06:24.208Z,101289.61
2018-10-12T18:11:08.004Z,101293.98
2018-10-12T18:15:51.052Z,101292.88
2018-10-12T18:20:34.477Z,101293.03
2018-10-12T18:25:17.397Z,101290.47
2018-10-12T18:30:00.397Z,101297.58
2018-10-12T18:34:44.310Z,101296.12
2018-10-12T18:39:28.263Z,101298.38
2018-10-12T18:44:11.172Z,101289.22
2018-10-12T18:48:54.216Z,101289.66
2018-10-12T18:53:37.137Z,101280.72
2018-10-12T18:58:23.753Z,101277.81
2018-10-12T19:03:07.129Z,101280.59
2018-10-12T19:07:50.116Z,101278.95
2018-10-12T19:12:32.995Z,101284.73
2018-10-12T19:17:15.902Z,101288.66
2018-10-12T19:22:00.036Z,101280.83
2018-10-12T19:26:42.999Z,101291.89
2018-10-12T19:31:27.152Z,101304.72
2018-10-12T19:36:10.017Z,101322.80
2018-10-12T19:40:54.170Z,101328.50
2018-10-12T19:45:37.135Z,101324.38
2018-10-12T19:50:21.164Z,101323.85
2018-10-12T19:55:04.149Z,101324.59
2018-10-12T19:59:47.161Z,101324.17
2018-10-12T20:04:30.041Z,101331.36
2018-10-12T20:09:12.939Z,101336.19
2018-10-12T20:13:55.817Z,101339.89
2018-10-12T20:18:38.736Z,101330.28
2018-10-12T20:23:21.607Z,101327.52
2018-10-12T20:28:08.376Z,101313.23
2018-10-12T20:32:51.242Z,101307.50
2018-10-12T20:37:34.339Z,101307.95
2018-10-12T20:42:17.231Z,101308.02
2018-10-12T20:47:00.120Z,101291.66
2018-10-12T20:51:44.018Z,101285.91
2018-10-12T20:56:27.266Z,101281.12
2018-10-12T21:01:11.312Z,101272.41
2018-10-12T21:05:54.208Z,101271.09
2018-10-12T21:10:37.362Z,101286.36
2018-10-12T21:15:20.242Z,101291.52
2018-10-12T21:20:04.596Z,101288.20
2018-10-12T21:24:47.907Z,101284.50
2018-10-12T21:29:30.874Z,101273.34
2018-10-12T21:34:13.748Z,101270.70
2018-10-12T21:38:56.675Z,101271.20
2018-10-12T21:43:39.548Z,101268.77
2018-10-12T21:48:22.464Z,101269.67
2018-10-12T21:53:05.357Z,101280.94
2018-10-12T21:57:50.259Z,101287.64
2018-10-12T22:02:33.090Z,101283.81
2018-10-12T22:07:22.021Z,101285.19
2018-10-12T22:12:04.843Z,101289.08
2018-10-12T22:16:48.306Z,101295.72
2018-10-12T22:21:32.343Z,101284.59
2018-10-12T22:26:15.283Z,101273.09
2018-10-12T22:30:59.415Z,101279.58
2018-10-12T22:35:42.265Z,101280.42
2018-10-12T22:40:26.167Z,101278.90
2018-10-12T22:45:09.036Z,101279.28
2018-10-12T22:49:51.952Z,101272.75
2018-10-12T22:54:34.786Z,101277.70
2018-10-12T22:59:18.764Z,101267.68
2018-10-12T23:04:01.644Z,101255.03
2018-10-12T23:08:44.737Z,101244.98
2018-10-12T23:13:27.610Z,101258.59
2018-10-12T23:18:10.524Z,101253.80
2018-10-12T23:22:53.433Z,101253.80
2018-10-12T23:27:36.512Z,101245.43
2018-10-12T23:32:19.350Z,101238.87
2018-10-12T23:37:02.361Z,101229.98
2018-10-12T23:41:45.422Z,101233.70
2018-10-12T23:46:28.242Z,101214.06
2018-10-12T23:51:11.372Z,101224.55
2018-10-12T23:55:54.258Z,101215.45
